Time;durP1;ratioP1;P1;durP2;ratioP2;P2;SDS_P1;SDS_P2;PMS_P1;PMS_P2;Temp;Humidity;BMP_temperature;BMP_pressure;BME280_temperature;BME280_humidity;BME280_pressure;Samples;Min_cycle;Max_cycle;Signal;HPM_P1;HPM_P2
2021/10/31 00:01:16;;;;;;;49.97;27.75;;;;;;;7.52;84.61;95907.34;5048809;28;20056;-72
2021/10/31 00:03:43;;;;;;;50.30;27.52;;;;;;;7.56;84.65;95908.31;5049382;28;20048;-72
2021/10/31 00:06:09;;;;;;;49.08;26.60;;;;;;;7.57;84.19;95909.94;5048566;28;20522;-72
2021/10/31 00:08:36;;;;;;;48.90;27.63;;;;;;;7.56;84.00;95902.09;5048984;28;20049;-72
2021/10/31 00:11:03;;;;;;;44.03;25.92;;;;;;;7.55;84.10;95895.88;5047855;28;20060;-72
2021/10/31 00:13:30;;;;;;;44.35;26.42;;;;;;;7.53;83.65;95892.69;5049311;28;20048;-72
2021/10/31 00:15:58;;;;;;;51.03;27.42;;;;;;;7.54;84.08;95905.13;5048129;28;20056;-72
2021/10/31 00:18:25;;;;;;;45.58;26.42;;;;;;;7.56;83.98;95897.47;5048342;28;20415;-73
2021/10/31 00:20:52;;;;;;;47.90;26.58;;;;;;;7.56;83.65;95902.88;5047765;28;20045;-72
2021/10/31 00:23:18;;;;;;;48.13;27.08;;;;;;;7.55;83.59;95901.28;5048187;28;20052;-72
2021/10/31 00:25:45;;;;;;;46.42;26.42;;;;;;;7.51;83.60;95905.72;5046219;28;20048;-72
2021/10/31 00:28:12;;;;;;;41.45;24.77;;;;;;;7.50;83.95;95906.03;5048140;28;20503;-73
2021/10/31 00:30:38;;;;;;;43.35;26.00;;;;;;;7.50;83.50;95903.31;5048134;28;20051;-72
2021/10/31 00:33:06;;;;;;;44.63;26.33;;;;;;;7.46;83.84;95892.28;5047763;28;20056;-72
2021/10/31 00:35:32;;;;;;;44.15;25.58;;;;;;;7.47;83.87;95904.75;5047937;28;20052;-72
2021/10/31 00:37:59;;;;;;;48.00;25.45;;;;;;;7.48;83.53;95903.66;5047729;28;20049;-72
2021/10/31 00:40:26;;;;;;;49.55;26.25;;;;;;;7.44;83.18;95902.66;5048182;28;20045;-72
2021/10/31 00:42:52;;;;;;;44.95;25.42;;;;;;;7.47;83.39;95931.06;5047543;28;20412;-72
2021/10/31 00:45:19;;;;;;;44.10;25.52;;;;;;;7.47;83.90;95931.06;5047959;28;20049;-72
2021/10/31 00:47:45;;;;;;;42.75;24.60;;;;;;;7.45;84.37;95950.31;5047723;28;20084;-72
2021/10/31 00:50:13;;;;;;;44.70;27.75;;;;;;;7.41;84.86;95948.50;5047498;28;20072;-72
2021/10/31 00:52:41;;;;;;;41.78;24.25;;;;;;;7.39;84.44;95953.44;5047826;28;20063;-73
2021/10/31 00:55:08;;;;;;;45.20;26.85;;;;;;;7.37;84.43;95950.25;5046649;28;20051;-72
2021/10/31 00:57:36;;;;;;;41.33;23.90;;;;;;;7.39;84.45;95956.16;5048167;28;20614;-72
2021/10/31 01:00:05;;;;;;;42.92;25.05;;;;;;;7.35;84.59;95938.91;5046511;28;20056;-71
2021/10/31 01:02:31;;;;;;;41.47;23.38;;;;;;;7.28;84.91;95952.88;5048000;28;20048;-72
2021/10/31 01:05:01;;;;;;;44.95;25.13;;;;;;;7.26;84.47;95968.66;5047258;28;20056;-72
2021/10/31 01:07:41;;;;;;;39.92;23.83;;;;;;;7.18;85.23;95951.22;5047873;28;20049;-73
2021/10/31 01:10:17;;;;;;;39.17;23.95;;;;;;;7.22;85.78;95954.13;5046865;28;20605;-72
2021/10/31 01:13:12;;;;;;;42.85;24.67;;;;;;;7.23;86.17;95944.88;5047849;28;20111;-72
2021/10/31 01:15:48;;;;;;;41.80;23.70;;;;;;;7.22;86.17;95954.13;5047958;28;20626;-72
2021/10/31 01:18:28;;;;;;;40.67;24.05;;;;;;;7.29;86.04;95946.34;5046420;28;20547;-73
2021/10/31 01:21:07;;;;;;;38.42;23.10;;;;;;;7.32;85.21;95953.88;5047827;28;20080;-72
2021/10/31 01:23:52;;;;;;;38.17;22.98;;;;;;;7.38;85.18;95952.66;5047081;28;20040;-72
2021/10/31 01:26:42;;;;;;;37.83;23.67;;;;;;;7.37;84.76;95952.97;5046718;28;20052;-72
2021/10/31 01:29:33;;;;;;;39.92;23.45;;;;;;;7.40;83.81;95952.34;5047645;28;20045;-72
2021/10/31 01:32:09;;;;;;;40.05;23.08;;;;;;;7.38;84.15;95954.56;5046767;28;20562;-72
2021/10/31 01:34:47;;;;;;;41.58;23.98;;;;;;;7.36;83.95;95957.59;5047751;28;20500;-73
2021/10/31 01:37:26;;;;;;;39.45;23.67;;;;;;;7.30;83.94;95965.00;5047110;28;20064;-71
2021/10/31 01:39:59;;;;;;;43.20;24.77;;;;;;;7.26;83.76;95958.63;5047224;28;20040;-72
2021/10/31 01:42:27;;;;;;;;;;;;;;;7.25;84.19;95951.56;5048014;28;20049;-72
2021/10/31 01:45:02;;;;;;;40.60;23.45;;;;;;;7.24;83.85;95954.59;5046736;28;19931;-72
2021/10/31 01:47:45;;;;;;;38.33;22.90;;;;;;;7.26;83.47;95945.06;5050998;28;20488;-72
2021/10/31 01:50:16;;;;;;;40.42;23.88;;;;;;;7.22;83.17;95956.81;5050685;28;20576;-73
2021/10/31 01:52:49;;;;;;;44.75;25.63;;;;;;;7.15;83.60;95956.44;5051418;28;20059;-72
2021/10/31 01:55:22;;;;;;;45.10;25.60;;;;;;;7.10;84.01;95951.13;5050473;28;20462;-72
2021/10/31 01:57:55;;;;;;;60.72;29.00;;;;;;;7.10;83.89;95946.53;5050673;28;20333;-72
2021/10/31 02:00:22;;;;;;;63.33;32.08;;;;;;;7.11;84.04;95944.63;5051319;28;20061;-72
2021/10/31 02:02:48;;;;;;;54.28;28.08;;;;;;;7.10;83.90;95943.00;5050648;28;20056;-72
2021/10/31 02:05:18;;;;;;;44.47;25.63;;;;;;;7.09;84.28;95936.78;5051209;28;20888;-72
2021/10/31 02:07:50;;;;;;;41.58;23.33;;;;;;;7.02;83.85;95942.63;5050477;28;20049;-72
2021/10/31 02:10:19;;;;;;;37.10;21.95;;;;;;;6.97;83.65;95945.44;5050649;28;20053;-72
2021/10/31 02:12:47;;;;;;;36.42;21.77;;;;;;;6.97;84.08;95945.44;5050940;28;20048;-74
2021/10/31 02:15:15;;;;;;;37.88;22.35;;;;;;;6.96;83.77;95943.06;5050029;28;20049;-74
2021/10/31 02:17:43;;;;;;;44.40;25.90;;;;;;;6.93;84.07;95944.44;5050943;28;20471;-74
2021/10/31 02:20:11;;;;;;;53.08;27.10;;;;;;;6.93;83.84;95930.91;5049686;28;20056;-74
2021/10/31 02:22:39;;;;;;;50.15;28.02;;;;;;;6.93;84.07;95933.63;5051136;28;20049;-74
2021/10/31 02:25:08;;;;;;;53.15;27.10;;;;;;;6.91;83.93;95933.13;5049322;28;20052;-74
2021/10/31 02:27:36;;;;;;;41.47;23.67;;;;;;;6.88;83.84;95928.31;5051277;28;20056;-74
2021/10/31 02:30:05;;;;;;;39.80;22.63;;;;;;;6.88;83.91;95931.03;5049745;28;20140;-72
2021/10/31 02:32:32;;;;;;;36.58;22.67;;;;;;;6.89;84.31;95932.66;5050570;28;20423;-72
2021/10/31 02:34:59;;;;;;;34.47;20.27;;;;;;;6.92;83.82;95936.66;5050330;28;20569;-72
2021/10/31 02:37:27;;;;;;;33.40;20.88;;;;;;;6.96;83.91;95933.03;5049808;28;20049;-72
2021/10/31 02:39:54;;;;;;;30.27;18.92;;;;;;;6.99;83.93;95926.97;5050603;28;20135;-72
2021/10/31 02:42:22;;;;;;;33.42;19.95;;;;;;;6.99;83.23;95935.09;5048925;28;20059;-72
2021/10/31 02:44:49;;;;;;;33.30;19.33;;;;;;;6.98;82.89;95930.81;5050669;28;20412;-72
2021/10/31 02:47:29;;;;;;;29.58;18.85;;;;;;;6.88;82.81;95933.75;5049036;28;20115;-72
2021/10/31 02:49:57;;;;;;;32.35;18.55;;;;;;;6.82;83.09;95948.50;5050634;28;20057;-72
2021/10/31 02:52:33;;;;;;;29.05;18.67;;;;;;;6.76;83.39;95938.88;5049217;28;20049;-72
2021/10/31 02:55:10;;;;;;;29.77;17.77;;;;;;;6.76;83.82;95949.72;5049954;28;20052;-72
2021/10/31 02:57:50;;;;;;;31.90;18.95;;;;;;;6.74;83.97;95946.50;5049707;28;20041;-72
2021/10/31 03:00:18;;;;;;;33.80;19.02;;;;;;;6.72;83.86;95943.28;5049636;28;20115;-72
2021/10/31 03:02:47;;;;;;;31.75;18.63;;;;;;;6.71;84.08;95941.69;5050333;28;20504;-72
2021/10/31 03:05:13;;;;;;;31.73;18.83;;;;;;;6.70;84.03;95934.69;5048972;28;20057;-72
2021/10/31 03:07:40;;;;;;;31.15;17.75;;;;;;;6.66;84.24;95929.06;5050149;28;20049;-72
2021/10/31 03:10:08;;;;;;;35.67;19.38;;;;;;;6.64;84.37;95925.09;5049139;28;20071;-71
2021/10/31 03:12:34;;;;;;;29.77;17.52;;;;;;;6.63;83.88;95923.47;5049902;28;20835;-72
2021/10/31 03:15:03;;;;;;;29.38;17.73;;;;;;;6.61;83.84;95923.75;5049880;28;20416;-72
2021/10/31 03:17:29;;;;;;;31.27;17.48;;;;;;;6.60;84.34;95929.50;5049281;28;20045;-72
2021/10/31 03:19:55;;;;;;;31.17;17.67;;;;;;;6.59;84.32;95928.69;5049981;28;20060;-72
2021/10/31 03:22:22;;;;;;;27.25;16.42;;;;;;;6.60;84.50;95932.19;5048547;28;20051;-72
2021/10/31 03:24:48;;;;;;;26.52;16.30;;;;;;;6.60;84.37;95924.09;5049716;28;20056;-72
2021/10/31 03:27:15;;;;;;;28.10;16.73;;;;;;;6.59;84.85;95911.66;5048355;28;20044;-72
2021/10/31 03:29:41;;;;;;;27.55;16.92;;;;;;;6.65;84.16;95926.69;5049998;28;20056;-72
2021/10/31 03:32:09;;;;;;;27.88;17.45;;;;;;;6.59;82.61;95934.09;5048111;28;20049;-72
2021/10/31 03:34:35;;;;;;;25.40;15.73;;;;;;;6.51;82.46;95932.88;5049682;28;20052;-72
2021/10/31 03:37:02;;;;;;;24.88;15.60;;;;;;;6.49;83.06;95939.72;5048982;28;20045;-71
2021/10/31 03:39:29;;;;;;;28.63;14.85;;;;;;;6.50;83.01;95942.13;5049053;28;20507;-72
2021/10/31 03:41:55;;;;;;;23.85;15.35;;;;;;;6.53;82.88;95935.31;5049336;28;20420;-72
2021/10/31 03:44:23;;;;;;;21.92;14.02;;;;;;;6.42;83.14;95942.84;5048050;28;20053;-72
2021/10/31 03:46:49;;;;;;;24.52;14.30;;;;;;;6.36;82.70;95951.34;5049475;28;20049;-73
2021/10/31 03:49:17;;;;;;;21.90;14.20;;;;;;;6.25;82.40;95946.13;5047872;28;20316;-72
2021/10/31 03:51:46;;;;;;;25.08;15.77;;;;;;;6.20;82.70;95953.53;5049283;28;20049;-72
2021/10/31 03:54:13;;;;;;;23.98;15.32;;;;;;;6.22;82.91;95954.06;5048175;28;20060;-72
2021/10/31 03:56:39;;;;;;;23.75;14.93;;;;;;;6.19;82.69;95951.94;5048560;28;20771;-72
2021/10/31 03:59:06;;;;;;;24.42;14.90;;;;;;;6.12;82.67;95951.53;5048505;28;20582;-71
2021/10/31 04:01:33;;;;;;;29.67;15.75;;;;;;;6.10;83.10;95957.22;5048514;28;20051;-72
2021/10/31 04:03:59;;;;;;;25.38;15.68;;;;;;;6.12;82.94;95957.75;5048624;28;20118;-72
2021/10/31 04:06:28;;;;;;;25.38;16.42;;;;;;;6.13;83.04;95945.03;5048000;28;20060;-72
2021/10/31 04:08:54;;;;;;;31.52;16.27;;;;;;;6.11;84.12;95944.50;5048676;28;20061;-72
2021/10/31 04:11:21;;;;;;;27.48;17.35;;;;;;;6.04;84.31;95952.22;5046824;28;20055;-72
2021/10/31 04:13:47;;;;;;;27.65;17.00;;;;;;;5.97;84.37;95949.91;5049082;28;20053;-72
2021/10/31 04:16:14;;;;;;;27.08;16.77;;;;;;;6.01;84.68;95951.72;5047786;28;20057;-72
2021/10/31 04:18:40;;;;;;;27.73;17.00;;;;;;;5.98;84.54;95954.22;5048565;28;20056;-72
2021/10/31 04:21:07;;;;;;;27.92;17.23;;;;;;;5.96;84.30;95965.34;5047567;28;20060;-71
2021/10/31 04:23:35;;;;;;;27.95;17.05;;;;;;;5.92;84.15;95958.91;5048508;28;20045;-74
2021/10/31 04:26:01;;;;;;;29.15;17.35;;;;;;;5.85;84.51;95953.06;5047628;28;20049;-69
2021/10/31 04:28:27;;;;;;;28.80;16.58;;;;;;;5.90;84.87;95950.28;5047839;28;20694;-73
2021/10/31 04:30:54;;;;;;;29.00;16.80;;;;;;;5.95;84.54;95952.09;5048164;28;20530;-72
2021/10/31 04:33:20;;;;;;;28.38;16.70;;;;;;;5.95;84.32;95949.38;5047012;28;20045;-72
2021/10/31 04:35:47;;;;;;;27.77;15.73;;;;;;;5.94;84.51;95945.88;5048449;28;20508;-72
2021/10/31 04:38:16;;;;;;;27.42;16.52;;;;;;;5.88;84.50;95940.84;5047049;28;20052;-72
2021/10/31 04:40:44;;;;;;;26.35;16.63;;;;;;;5.85;84.49;95931.47;5048658;28;20139;-72
2021/10/31 04:43:12;;;;;;;28.30;17.00;;;;;;;5.82;84.47;95926.63;5047087;28;20049;-72
2021/10/31 04:45:40;;;;;;;30.08;17.73;;;;;;;5.81;84.61;95927.75;5048265;28;20044;-72
2021/10/31 04:48:07;;;;;;;28.23;16.92;;;;;;;5.81;84.70;95933.13;5047318;28;20053;-72
2021/10/31 04:50:34;;;;;;;29.08;17.65;;;;;;;5.81;84.90;95929.63;5048257;28;20049;-72
2021/10/31 04:53:01;;;;;;;27.67;16.45;;;;;;;5.85;85.27;95941.47;5048260;28;20059;-72
2021/10/31 04:55:28;;;;;;;29.80;16.88;;;;;;;5.85;85.21;95923.34;5046869;28;20049;-72
2021/10/31 04:57:57;;;;;;;29.58;16.45;;;;;;;5.87;85.27;95907.63;5048103;28;20135;-72
2021/10/31 05:00:24;;;;;;;26.75;15.65;;;;;;;5.91;85.62;95918.66;5046874;28;20142;-72
2021/10/31 05:02:52;;;;;;;25.20;15.40;;;;;;;5.90;85.39;95912.44;5048325;28;20052;-74
2021/10/31 05:05:18;;;;;;;27.40;16.00;;;;;;;5.91;84.99;95919.47;5046497;28;20063;-72
2021/10/31 05:07:45;;;;;;;25.35;15.20;;;;;;;5.91;85.11;95914.06;5048127;28;20060;-72
2021/10/31 05:10:11;;;;;;;25.13;15.43;;;;;;;5.93;85.48;95901.06;5046770;28;20052;-72
2021/10/31 05:12:38;;;;;;;24.73;14.75;;;;;;;5.99;85.26;95902.56;5047696;28;20044;-72
2021/10/31 05:15:08;;;;;;;24.30;15.38;;;;;;;6.00;84.97;95898.78;5047126;28;20114;-72
2021/10/31 05:17:35;;;;;;;26.30;14.93;;;;;;;6.00;84.70;95895.25;5047073;28;20052;-72
2021/10/31 05:20:02;;;;;;;23.05;14.65;;;;;;;5.96;84.88;95895.06;5047356;28;20103;-72
2021/10/31 05:22:28;;;;;;;22.70;14.57;;;;;;;5.94;84.84;95881.03;5046601;28;20060;-72
2021/10/31 05:24:54;;;;;;;26.30;14.43;;;;;;;5.94;84.91;95883.72;5047279;28;20053;-72
2021/10/31 05:27:21;;;;;;;22.65;13.63;;;;;;;5.94;84.85;95874.81;5046597;28;20590;-72
2021/10/31 05:29:48;;;;;;;22.38;14.23;;;;;;;5.91;84.55;95887.06;5047658;28;20041;-73
2021/10/31 05:32:16;;;;;;;20.42;12.85;;;;;;;5.90;84.62;95885.44;5046358;28;20049;-72
2021/10/31 05:34:42;;;;;;;22.02;13.70;;;;;;;5.89;84.78;95889.19;5047510;28;20053;-73
2021/10/31 05:37:09;;;;;;;32.10;13.63;;;;;;;5.91;84.59;95884.34;5046827;28;20049;-72
2021/10/31 05:39:36;;;;;;;20.75;12.52;;;;;;;5.96;84.49;95878.03;5047560;28;20045;-72
2021/10/31 05:42:02;;;;;;;24.60;12.98;;;;;;;5.96;84.06;95881.56;5046868;28;20052;-72
2021/10/31 05:44:29;;;;;;;21.20;12.82;;;;;;;5.92;84.23;95880.53;5047529;28;20412;-72
2021/10/31 05:46:55;;;;;;;21.55;12.65;;;;;;;5.90;84.17;95869.22;5047804;28;20052;-73
2021/10/31 05:49:23;;;;;;;23.27;12.57;;;;;;;5.88;84.17;95871.38;5046330;28;20056;-72
2021/10/31 05:51:49;;;;;;;19.27;12.75;;;;;;;5.88;84.13;95882.19;5047377;28;20052;-73
2021/10/31 05:54:16;;;;;;;20.70;12.60;;;;;;;5.90;84.19;95880.03;5046342;28;20136;-72
2021/10/31 05:56:42;;;;;;;22.27;12.75;;;;;;;5.91;84.02;95880.81;5046842;28;20052;-72
2021/10/31 05:59:09;;;;;;;19.90;12.27;;;;;;;5.88;83.60;95876.78;5046789;28;20041;-72
2021/10/31 06:01:36;;;;;;;18.85;11.70;;;;;;;5.84;83.43;95867.69;5047120;28;20041;-72
2021/10/31 06:04:03;;;;;;;21.13;12.43;;;;;;;5.81;83.47;95871.00;5046567;28;20044;-72
2021/10/31 06:06:31;;;;;;;18.27;11.32;;;;;;;5.78;83.49;95870.78;5047648;28;20132;-72
2021/10/31 06:08:57;;;;;;;19.58;11.48;;;;;;;5.74;83.55;95865.16;5047704;28;20502;-72
2021/10/31 06:11:24;;;;;;;18.17;10.90;;;;;;;5.74;83.65;95859.75;5045677;28;20052;-72
2021/10/31 06:13:51;;;;;;;17.08;10.70;;;;;;;5.73;83.20;95856.25;5047199;28;20053;-73
2021/10/31 06:16:17;;;;;;;16.77;10.77;;;;;;;5.73;83.60;95866.28;5046090;28;20500;-72
2021/10/31 06:18:45;;;;;;;16.27;10.40;;;;;;;5.72;82.96;95865.47;5047195;28;20568;-73
2021/10/31 06:21:12;;;;;;;16.65;10.23;;;;;;;5.71;82.92;95865.78;5045866;28;20049;-73
2021/10/31 06:23:39;;;;;;;17.42;10.45;;;;;;;5.68;83.30;95859.06;5047045;28;20041;-73
2021/10/31 06:26:06;;;;;;;15.73;10.18;;;;;;;5.68;83.58;95860.97;5045847;28;20045;-72
2021/10/31 06:28:32;;;;;;;18.00;11.05;;;;;;;5.67;83.46;95859.38;5047098;28;20053;-74
2021/10/31 06:31:00;;;;;;;16.65;10.10;;;;;;;5.69;83.79;95862.56;5047102;28;20045;-72
2021/10/31 06:33:26;;;;;;;17.98;11.32;;;;;;;5.75;83.73;95866.78;5046862;28;20057;-73
2021/10/31 06:35:53;;;;;;;15.38;9.98;;;;;;;5.85;83.59;95861.19;5050546;28;20126;-72
2021/10/31 06:38:19;;;;;;;16.10;10.18;;;;;;;5.93;83.44;95857.00;5049367;28;20496;-72
2021/10/31 06:40:47;;;;;;;16.55;10.80;;;;;;;6.01;82.89;95869.84;5050754;28;20048;-72
2021/10/31 06:43:14;;;;;;;18.50;11.63;;;;;;;6.01;81.66;95873.34;5049251;28;20045;-72
2021/10/31 06:45:40;;;;;;;19.65;11.70;;;;;;;6.00;81.88;95877.16;5050438;28;20419;-72
2021/10/31 06:48:07;;;;;;;20.63;13.15;;;;;;;6.00;82.13;95879.03;5049671;28;20136;-74
2021/10/31 06:50:34;;;;;;;22.45;14.45;;;;;;;5.97;82.37;95869.63;5050031;28;20063;-72
2021/10/31 06:53:01;;;;;;;21.00;13.82;;;;;;;6.04;82.83;95876.53;5050227;28;20056;-73
2021/10/31 06:55:28;;;;;;;20.45;13.15;;;;;;;6.11;83.62;95869.63;5048875;28;20052;-76
2021/10/31 06:57:56;;;;;;;18.17;11.35;;;;;;;6.19;83.37;95868.13;5050172;28;20551;-73
2021/10/31 07:00:23;;;;;;;17.58;11.35;;;;;;;6.23;83.42;95877.25;5049116;28;20049;-72
2021/10/31 07:02:49;;;;;;;16.42;10.77;;;;;;;6.31;82.93;95871.09;5050380;28;20771;-73
2021/10/31 07:05:16;;;;;;;16.00;11.02;;;;;;;6.35;83.41;95868.59;5048807;28;20048;-72
2021/10/31 07:07:42;;;;;;;17.02;10.95;;;;;;;6.42;83.39;95874.41;5050089;28;20056;-72
2021/10/31 07:10:10;;;;;;;17.52;10.77;;;;;;;6.50;83.89;95871.78;5049028;28;20068;-73
2021/10/31 07:12:37;;;;;;;16.92;10.73;;;;;;;6.60;83.57;95873.47;5049921;28;20049;-73
2021/10/31 07:15:06;;;;;;;16.58;10.65;;;;;;;6.67;82.92;95871.16;5049619;28;20049;-72
2021/10/31 07:17:32;;;;;;;18.15;10.60;;;;;;;6.75;82.76;95873.13;5049444;28;20041;-72
2021/10/31 07:19:59;;;;;;;17.02;10.40;;;;;;;6.80;83.33;95874.94;5049778;28;20431;-72
2021/10/31 07:22:25;;;;;;;14.88;10.55;;;;;;;6.82;83.20;95878.13;5049436;28;20040;-72
2021/10/31 07:24:56;;;;;;;17.08;10.88;;;;;;;6.93;83.56;95867.88;5049491;28;20040;-72
2021/10/31 07:27:23;;;;;;;16.45;10.65;;;;;;;7.02;83.46;95866.84;5048680;28;20048;-72
2021/10/31 07:29:49;;;;;;;19.05;11.93;;;;;;;7.09;83.50;95860.97;5049639;28;20037;-72
2021/10/31 07:32:17;;;;;;;18.60;11.32;;;;;;;7.17;83.57;95856.75;5048530;28;20079;-72
2021/10/31 07:34:45;;;;;;;21.48;12.48;;;;;;;7.29;84.13;95854.28;5049452;28;20041;-73
2021/10/31 07:37:11;;;;;;;19.73;12.20;;;;;;;7.42;84.75;95853.41;5049113;28;20135;-72
2021/10/31 07:39:40;;;;;;;17.80;11.98;;;;;;;7.56;84.65;95851.41;5049446;28;20052;-72
2021/10/31 07:42:07;;;;;;;19.55;12.70;;;;;;;7.69;84.19;95851.66;5049055;28;20052;-72
2021/10/31 07:44:33;;;;;;;20.13;11.70;;;;;;;7.77;84.09;95856.28;5048540;28;20053;-72
2021/10/31 07:47:00;;;;;;;18.67;12.40;;;;;;;7.87;84.44;95850.59;5049472;28;20053;-72
2021/10/31 07:49:27;;;;;;;16.95;11.27;;;;;;;8.00;84.57;95852.41;5048212;28;20040;-73
2021/10/31 07:51:54;;;;;;;18.60;11.90;;;;;;;8.20;84.32;95848.34;5049028;28;20053;-73
2021/10/31 07:54:24;;;;;;;18.42;11.55;;;;;;;8.42;84.68;95849.38;5047914;28;20053;-73
2021/10/31 07:56:54;;;;;;;18.98;12.40;;;;;;;8.65;83.43;95850.03;5029249;28;20053;-73
2021/10/31 07:59:20;;;;;;;19.17;12.52;;;;;;;8.87;83.05;95856.16;5028238;28;20041;-73
2021/10/31 08:01:48;;;;;;;19.38;11.70;;;;;;;9.04;82.71;95839.06;5028645;28;20535;-73
2021/10/31 08:04:15;;;;;;;18.23;11.27;;;;;;;9.35;81.60;95840.78;5028568;28;20053;-73
2021/10/31 08:06:43;;;;;;;25.00;11.90;;;;;;;9.94;79.15;95835.47;5027877;28;20044;-73
2021/10/31 08:09:10;;;;;;;15.65;10.68;;;;;;;10.65;77.89;95824.72;5029000;28;20057;-72
2021/10/31 08:11:36;;;;;;;16.58;9.32;;;;;;;11.27;75.65;95820.34;5027964;28;20057;-73
2021/10/31 08:14:03;;;;;;;12.18;8.02;;;;;;;11.76;71.00;95821.31;5028767;28;20064;-72
2021/10/31 08:16:31;;;;;;;10.18;7.15;;;;;;;12.22;67.37;95822.06;5027839;28;20660;-73
2021/10/31 08:18:58;;;;;;;10.27;6.90;;;;;;;12.66;65.48;95829.66;5028556;28;20057;-73
2021/10/31 08:21:25;;;;;;;10.45;6.90;;;;;;;13.02;63.96;95826.03;5027102;28;20049;-73
2021/10/31 08:23:53;;;;;;;8.35;5.60;;;;;;;13.29;61.53;95822.56;5028886;28;20054;-73
2021/10/31 08:26:20;;;;;;;8.48;6.15;;;;;;;13.78;61.66;95818.75;5044609;28;20045;-73
2021/10/31 08:28:48;;;;;;;7.57;5.45;;;;;;;14.00;59.84;95820.13;5048664;28;20048;-73
2021/10/31 08:31:23;;;;;;;8.95;6.30;;;;;;;13.82;58.87;95814.97;5048027;28;20055;-73
2021/10/31 08:33:55;;;;;;;9.27;6.22;;;;;;;13.52;59.79;95820.06;5046577;28;20059;-73
2021/10/31 08:36:21;;;;;;;9.48;6.90;;;;;;;13.36;60.93;95818.41;5047769;28;20060;-72
2021/10/31 08:38:48;;;;;;;10.48;6.45;;;;;;;13.20;62.13;95816.41;5046413;28;20523;-72
2021/10/31 08:41:19;;;;;;;9.45;6.57;;;;;;;13.04;61.83;95816.34;5045612;28;20079;-72
2021/10/31 08:43:46;;;;;;;9.73;6.90;;;;;;;12.92;62.94;95815.59;5047151;28;20528;-73
2021/10/31 08:46:13;;;;;;;10.85;7.32;;;;;;;12.78;63.33;95810.50;5047193;28;20060;-73
2021/10/31 08:48:39;;;;;;;10.65;7.78;;;;;;;12.72;63.81;95796.28;5047973;28;20056;-72
2021/10/31 08:51:06;;;;;;;10.50;7.32;;;;;;;12.74;63.92;95799.47;5047381;28;20799;-73
2021/10/31 08:53:33;;;;;;;10.57;7.18;;;;;;;12.89;63.99;95794.41;5048533;28;20052;-73
2021/10/31 08:56:01;;;;;;;13.65;8.55;;;;;;;13.08;63.84;95786.38;5046571;28;20329;-73
2021/10/31 08:58:29;;;;;;;15.07;8.80;;;;;;;13.22;63.96;95780.56;5048302;28;20051;-74
2021/10/31 09:00:56;;;;;;;12.80;8.88;;;;;;;13.40;64.30;95775.56;5047086;28;20056;-73
2021/10/31 09:03:23;;;;;;;14.20;8.23;;;;;;;13.61;63.93;95780.81;5047757;28;20049;-73
2021/10/31 09:05:50;;;;;;;12.73;7.82;;;;;;;13.61;63.42;95778.84;5047058;28;20045;-73
2021/10/31 09:08:17;;;;;;;13.20;8.35;;;;;;;13.70;63.80;95774.03;5047156;28;20132;-72
2021/10/31 09:10:44;;;;;;;13.93;7.95;;;;;;;13.78;63.83;95775.81;5047410;28;20058;-73
2021/10/31 09:13:11;;;;;;;13.20;8.90;;;;;;;13.81;63.27;95775.09;5046649;28;20052;-73
2021/10/31 09:15:39;;;;;;;12.95;9.85;;;;;;;13.91;62.61;95764.75;5047381;28;20530;-73
2021/10/31 09:18:07;;;;;;;17.30;10.10;;;;;;;14.16;61.78;95751.69;5046139;28;20079;-72
2021/10/31 09:20:35;;;;;;;15.73;10.88;;;;;;;14.40;60.84;95745.16;5047707;28;20420;-73
2021/10/31 09:23:04;;;;;;;16.17;10.50;;;;;;;14.53;60.01;95743.94;5046077;28;20044;-71
2021/10/31 09:25:31;;;;;;;18.13;10.50;;;;;;;14.66;59.75;95737.16;5046986;28;20052;-72
2021/10/31 09:27:59;;;;;;;15.43;11.10;;;;;;;14.76;59.33;95724.84;5046825;28;20056;-72
2021/10/31 09:30:26;;;;;;;15.00;10.70;;;;;;;14.83;59.11;95720.31;5046727;28;20053;-73
2021/10/31 09:32:54;;;;;;;15.88;11.48;;;;;;;14.91;59.20;95714.97;5047625;28;20144;-73
2021/10/31 09:35:23;;;;;;;17.95;12.27;;;;;;;15.05;59.64;95715.25;5046903;28;20052;-73
2021/10/31 09:37:53;;;;;;;20.17;12.55;;;;;;;15.17;58.88;95704.13;5047965;28;20045;-72
2021/10/31 09:40:21;;;;;;;17.98;13.55;;;;;;;15.27;58.71;95702.75;5046668;28;20724;-73
2021/10/31 09:42:49;;;;;;;19.50;13.77;;;;;;;15.39;59.51;95697.88;5048158;28;20138;-73
2021/10/31 09:45:15;;;;;;;20.40;14.38;;;;;;;15.53;59.87;95702.81;5045928;28;20482;-73
2021/10/31 09:47:43;;;;;;;17.70;13.20;;;;;;;15.56;58.37;95690.34;5047622;28;20056;-73
2021/10/31 09:50:11;;;;;;;22.25;14.40;;;;;;;15.65;59.25;95693.63;5046558;28;20056;-73
2021/10/31 09:52:37;;;;;;;21.23;15.27;;;;;;;15.70;58.60;95685.09;5047518;28;20059;-73
2021/10/31 09:55:05;;;;;;;20.30;14.70;;;;;;;15.78;58.86;95684.06;5046304;28;20755;-73
2021/10/31 09:57:32;;;;;;;21.83;14.73;;;;;;;15.94;58.55;95681.16;5046979;28;20610;-73
2021/10/31 10:00:00;;;;;;;19.48;14.18;;;;;;;16.12;58.47;95681.44;5046913;28;20521;-73
2021/10/31 10:02:51;;;;;;;18.52;13.88;;;;;;;16.17;57.12;95675.63;5046040;28;20041;-73
2021/10/31 10:05:21;;;;;;;17.88;13.00;;;;;;;16.28;56.45;95670.28;5045896;28;20111;-73
2021/10/31 10:07:48;;;;;;;18.27;12.63;;;;;;;16.37;55.65;95668.84;5047390;28;20412;-73
2021/10/31 10:10:15;;;;;;;14.50;11.10;;;;;;;16.51;55.70;95670.22;5051123;28;20076;-73
2021/10/31 10:12:42;;;;;;;15.70;11.50;;;;;;;16.61;54.47;95666.81;5051118;28;20044;-73
2021/10/31 10:15:11;;;;;;;22.45;11.50;;;;;;;16.81;54.34;95660.03;5050465;28;20053;-73
2021/10/31 10:17:46;;;;;;;17.73;11.57;;;;;;;16.91;53.73;95653.03;5051470;28;20045;-73
2021/10/31 10:20:13;;;;;;;16.85;11.10;;;;;;;16.98;53.47;95646.84;5050470;28;20091;-73
2021/10/31 10:22:42;;;;;;;16.10;11.90;;;;;;;17.10;54.50;95643.81;5051370;28;20044;-73
2021/10/31 10:25:09;;;;;;;17.98;11.93;;;;;;;17.31;53.68;95638.53;5049638;28;20052;-73
2021/10/31 10:27:47;;;;;;;15.68;11.23;;;;;;;17.54;52.64;95630.09;5051512;28;20052;-74
2021/10/31 10:30:16;;;;;;;14.63;10.77;;;;;;;17.72;51.87;95627.50;5049832;28;20077;-72
2021/10/31 10:32:50;;;;;;;16.27;11.63;;;;;;;17.86;52.38;95619.38;5051123;28;20511;-72
2021/10/31 10:35:17;;;;;;;14.55;9.98;;;;;;;18.02;51.10;95612.78;5050456;28;20131;-72
2021/10/31 10:37:45;;;;;;;15.32;10.55;;;;;;;17.99;50.43;95612.34;5050551;28;20102;-72
2021/10/31 10:40:20;;;;;;;13.73;10.43;;;;;;;17.95;50.61;95611.53;5050842;28;20055;-72
2021/10/31 10:42:48;;;;;;;12.63;9.70;;;;;;;17.97;50.42;95609.22;5049994;28;20415;-73
2021/10/31 10:45:18;;;;;;;12.25;9.27;;;;;;;18.00;51.26;95602.91;5050519;28;20060;-73
2021/10/31 10:47:46;;;;;;;14.98;9.70;;;;;;;18.02;49.40;95604.53;5050020;28;20041;-72
2021/10/31 10:50:16;;;;;;;15.40;10.63;;;;;;;17.98;49.52;95602.53;5050876;28;20041;-73
2021/10/31 10:52:44;;;;;;;12.80;9.02;;;;;;;17.97;49.79;95598.19;5050250;28;20053;-72
2021/10/31 10:55:13;;;;;;;14.52;9.10;;;;;;;17.97;48.39;95591.91;5050004;28;20053;-72
2021/10/31 10:57:42;;;;;;;12.88;8.50;;;;;;;17.94;47.63;95593.44;5051227;28;20094;-73
2021/10/31 11:00:12;;;;;;;11.27;9.23;;;;;;;17.93;47.02;95586.34;5049933;28;20064;-73
2021/10/31 11:02:40;;;;;;;10.85;7.95;;;;;;;17.93;47.20;95583.59;5050291;28;20060;-73
2021/10/31 11:05:09;;;;;;;9.75;7.78;;;;;;;18.04;47.38;95575.41;5049254;28;20738;-75
2021/10/31 11:07:40;;;;;;;14.52;8.57;;;;;;;18.03;46.02;95567.53;5050324;28;20419;-73
2021/10/31 11:10:18;;;;;;;15.10;9.85;;;;;;;18.08;47.75;95569.91;5049313;28;20487;-72
2021/10/31 11:12:46;;;;;;;11.57;9.10;;;;;;;18.18;46.88;95558.16;5050516;28;20140;-73
2021/10/31 11:15:15;;;;;;;12.57;8.88;;;;;;;18.27;47.11;95555.84;5049053;28;20455;-74
2021/10/31 11:17:43;;;;;;;14.95;8.60;;;;;;;18.18;45.97;95547.94;5050131;28;20504;-73
2021/10/31 11:20:12;;;;;;;11.52;8.35;;;;;;;18.15;45.20;95543.19;5048662;28;20576;-73
2021/10/31 11:22:43;;;;;;;10.38;7.68;;;;;;;18.18;45.37;95534.16;5049492;28;20037;-73
2021/10/31 11:25:13;;;;;;;13.45;8.80;;;;;;;18.23;47.41;95524.72;5049399;28;20048;-72
2021/10/31 11:27:40;;;;;;;12.25;8.23;;;;;;;18.26;44.93;95523.94;5048907;28;20041;-73
2021/10/31 11:30:09;;;;;;;11.80;8.02;;;;;;;18.25;45.61;95516.84;5049483;28;20052;-73